sensor_id;sensor_type;location;lat;lon;timestamp;temperature;humidity
80234;DHT22;69712;42.142;24.766;2023-05-07T00:00:18;16.10;64.40
80234;DHT22;69712;42.142;24.766;2023-05-07T00:05:58;16.10;64.20
80234;DHT22;69712;42.142;24.766;2023-05-07T00:08:24;16.20;64.90
80234;DHT22;69712;42.142;24.766;2023-05-07T02:11:36;15.80;64.30
80234;DHT22;69712;42.142;24.766;2023-05-07T02:24:07;15.90;64.00
80234;DHT22;69712;42.142;24.766;2023-05-07T02:26:44;15.80;63.90
80234;DHT22;69712;42.142;24.766;2023-05-07T02:50:17;15.70;64.90
80234;DHT22;69712;42.142;24.766;2023-05-07T03:03:56;15.20;66.60
80234;DHT22;69712;42.142;24.766;2023-05-07T03:10:40;15.40;66.70
80234;DHT22;69712;42.142;24.766;2023-05-07T03:16:40;15.40;67.10
80234;DHT22;69712;42.142;24.766;2023-05-07T03:23:15;15.30;67.60
80234;DHT22;69712;42.142;24.766;2023-05-07T03:26:04;15.60;66.80
80234;DHT22;69712;42.142;24.766;2023-05-07T03:28:30;15.60;66.90
80234;DHT22;69712;42.142;24.766;2023-05-07T03:31:07;15.50;67.10
80234;DHT22;69712;42.142;24.766;2023-05-07T03:33:33;15.60;67.30
80234;DHT22;69712;42.142;24.766;2023-05-07T03:36:06;15.50;67.70
80234;DHT22;69712;42.142;24.766;2023-05-07T03:38:32;15.50;67.70
80234;DHT22;69712;42.142;24.766;2023-05-07T03:40:57;15.50;67.70
80234;DHT22;69712;42.142;24.766;2023-05-07T03:43:29;15.60;67.20
80234;DHT22;69712;42.142;24.766;2023-05-07T03:45:55;15.60;67.00
80234;DHT22;69712;42.142;24.766;2023-05-07T03:48:20;15.60;67.40
80234;DHT22;69712;42.142;24.766;2023-05-07T03:50:55;15.50;67.70
80234;DHT22;69712;42.142;24.766;2023-05-07T03:53:24;15.40;68.00
80234;DHT22;69712;42.142;24.766;2023-05-07T03:55:49;15.40;69.70
80234;DHT22;69712;42.142;24.766;2023-05-07T03:58:16;15.40;71.00
80234;DHT22;69712;42.142;24.766;2023-05-07T04:00:42;15.30;68.50
80234;DHT22;69712;42.142;24.766;2023-05-07T04:03:08;15.40;72.40
80234;DHT22;69712;42.142;24.766;2023-05-07T04:05:33;15.40;69.30
80234;DHT22;69712;42.142;24.766;2023-05-07T04:08:00;15.50;67.60
80234;DHT22;69712;42.142;24.766;2023-05-07T04:10:26;15.50;66.80
80234;DHT22;69712;42.142;24.766;2023-05-07T04:13:06;15.30;68.30
80234;DHT22;69712;42.142;24.766;2023-05-07T04:15:47;15.30;68.00
80234;DHT22;69712;42.142;24.766;2023-05-07T04:18:16;15.40;67.60
80234;DHT22;69712;42.142;24.766;2023-05-07T04:20:45;15.40;67.30
80234;DHT22;69712;42.142;24.766;2023-05-07T04:23:20;15.60;67.30
80234;DHT22;69712;42.142;24.766;2023-05-07T04:25:46;15.50;66.10
80234;DHT22;69712;42.142;24.766;2023-05-07T04:28:19;15.60;67.30
80234;DHT22;69712;42.142;24.766;2023-05-07T04:30:54;15.60;66.20
80234;DHT22;69712;42.142;24.766;2023-05-07T04:33:21;15.80;65.80
80234;DHT22;69712;42.142;24.766;2023-05-07T04:35:46;15.60;65.50
80234;DHT22;69712;42.142;24.766;2023-05-07T04:38:12;15.80;64.90
80234;DHT22;69712;42.142;24.766;2023-05-07T04:40:38;15.80;64.60
80234;DHT22;69712;42.142;24.766;2023-05-07T04:43:04;15.70;64.60
80234;DHT22;69712;42.142;24.766;2023-05-07T04:45:30;15.70;64.60
80234;DHT22;69712;42.142;24.766;2023-05-07T04:47:56;15.80;64.40
80234;DHT22;69712;42.142;24.766;2023-05-07T04:50:24;16.00;64.00
80234;DHT22;69712;42.142;24.766;2023-05-07T04:53:00;16.10;63.50
80234;DHT22;69712;42.142;24.766;2023-05-07T04:55:38;16.30;63.00
80234;DHT22;69712;42.142;24.766;2023-05-07T04:58:04;16.30;62.60
80234;DHT22;69712;42.142;24.766;2023-05-07T05:00:30;16.40;62.70
80234;DHT22;69712;42.142;24.766;2023-05-07T05:02:56;16.30;62.50
80234;DHT22;69712;42.142;24.766;2023-05-07T05:05:22;16.30;62.50
80234;DHT22;69712;42.142;24.766;2023-05-07T05:07:50;16.50;62.10
80234;DHT22;69712;42.142;24.766;2023-05-07T05:10:29;16.50;62.00
80234;DHT22;69712;42.142;24.766;2023-05-07T05:12:55;16.60;61.80
80234;DHT22;69712;42.142;24.766;2023-05-07T05:15:21;16.60;61.80
80234;DHT22;69712;42.142;24.766;2023-05-07T05:17:55;16.70;61.70
80234;DHT22;69712;42.142;24.766;2023-05-07T05:20:30;16.60;61.70
80234;DHT22;69712;42.142;24.766;2023-05-07T05:22:56;16.60;61.70
80234;DHT22;69712;42.142;24.766;2023-05-07T05:25:21;16.80;61.40
80234;DHT22;69712;42.142;24.766;2023-05-07T05:27:47;16.80;61.10
80234;DHT22;69712;42.142;24.766;2023-05-07T05:30:16;16.80;61.00
80234;DHT22;69712;42.142;24.766;2023-05-07T05:32:44;16.90;60.80
80234;DHT22;69712;42.142;24.766;2023-05-07T05:35:10;16.90;60.70
80234;DHT22;69712;42.142;24.766;2023-05-07T05:37:36;17.10;60.70
80234;DHT22;69712;42.142;24.766;2023-05-07T05:40:02;17.20;60.10
80234;DHT22;69712;42.142;24.766;2023-05-07T05:42:27;17.20;59.40
80234;DHT22;69712;42.142;24.766;2023-05-07T05:44:56;17.50;58.80
80234;DHT22;69712;42.142;24.766;2023-05-07T05:47:22;17.60;58.40
80234;DHT22;69712;42.142;24.766;2023-05-07T05:49:53;17.60;58.50
80234;DHT22;69712;42.142;24.766;2023-05-07T05:55:54;17.90;55.60
80234;DHT22;69712;42.142;24.766;2023-05-07T05:58:40;18.20;55.40
80234;DHT22;69712;42.142;24.766;2023-05-07T06:01:06;18.40;55.10
80234;DHT22;69712;42.142;24.766;2023-05-07T06:03:32;18.50;54.90
80234;DHT22;69712;42.142;24.766;2023-05-07T06:05:58;18.60;54.50
80234;DHT22;69712;42.142;24.766;2023-05-07T06:08:25;18.60;54.10
80234;DHT22;69712;42.142;24.766;2023-05-07T06:10:51;18.50;54.10
80234;DHT22;69712;42.142;24.766;2023-05-07T06:13:17;18.60;54.30
80234;DHT22;69712;42.142;24.766;2023-05-07T06:15:42;18.70;53.90
80234;DHT22;69712;42.142;24.766;2023-05-07T06:18:08;18.90;54.00
80234;DHT22;69712;42.142;24.766;2023-05-07T06:20:34;19.30;52.40
80234;DHT22;69712;42.142;24.766;2023-05-07T06:23:00;19.70;52.10
80234;DHT22;69712;42.142;24.766;2023-05-07T06:25:26;20.30;49.60
80234;DHT22;69712;42.142;24.766;2023-05-07T06:27:51;20.60;49.60
80234;DHT22;69712;42.142;24.766;2023-05-07T06:30:17;22.80;45.30
80234;DHT22;69712;42.142;24.766;2023-05-07T06:32:42;24.50;42.00
80234;DHT22;69712;42.142;24.766;2023-05-07T06:35:08;26.20;38.00
80234;DHT22;69712;42.142;24.766;2023-05-07T06:37:34;27.70;35.50
80234;DHT22;69712;42.142;24.766;2023-05-07T06:39:59;27.10;36.00
80234;DHT22;69712;42.142;24.766;2023-05-07T06:42:25;27.80;32.70
80234;DHT22;69712;42.142;24.766;2023-05-07T06:44:52;26.10;36.30
80234;DHT22;69712;42.142;24.766;2023-05-07T06:47:18;26.30;36.90
80234;DHT22;69712;42.142;24.766;2023-05-07T06:49:44;27.70;34.40
80234;DHT22;69712;42.142;24.766;2023-05-07T06:52:10;29.40;32.00
80234;DHT22;69712;42.142;24.766;2023-05-07T06:54:35;30.70;29.60
80234;DHT22;69712;42.142;24.766;2023-05-07T06:57:01;31.50;28.70
80234;DHT22;69712;42.142;24.766;2023-05-07T06:59:26;32.50;27.90
80234;DHT22;69712;42.142;24.766;2023-05-07T07:01:52;32.40;27.70
80234;DHT22;69712;42.142;24.766;2023-05-07T07:04:18;33.30;27.30
80234;DHT22;69712;42.142;24.766;2023-05-07T07:06:43;33.50;26.40
80234;DHT22;69712;42.142;24.766;2023-05-07T07:09:09;32.80;26.80
80234;DHT22;69712;42.142;24.766;2023-05-07T07:11:35;33.70;26.60
80234;DHT22;69712;42.142;24.766;2023-05-07T07:14:01;34.90;25.40
80234;DHT22;69712;42.142;24.766;2023-05-07T07:16:26;35.20;25.10
80234;DHT22;69712;42.142;24.766;2023-05-07T07:18:52;35.80;24.70
80234;DHT22;69712;42.142;24.766;2023-05-07T07:21:18;32.60;25.90
80234;DHT22;69712;42.142;24.766;2023-05-07T07:23:43;29.10;31.30
80234;DHT22;69712;42.142;24.766;2023-05-07T07:26:09;28.50;32.30
80234;DHT22;69712;42.142;24.766;2023-05-07T07:28:35;28.70;31.40
80234;DHT22;69712;42.142;24.766;2023-05-07T07:31:07;30.20;30.30
80234;DHT22;69712;42.142;24.766;2023-05-07T07:33:32;30.70;29.50
80234;DHT22;69712;42.142;24.766;2023-05-07T07:35:58;31.10;28.40
80234;DHT22;69712;42.142;24.766;2023-05-07T07:38:23;32.30;28.00
80234;DHT22;69712;42.142;24.766;2023-05-07T07:40:49;33.50;27.00
80234;DHT22;69712;42.142;24.766;2023-05-07T07:43:15;34.20;26.60
80234;DHT22;69712;42.142;24.766;2023-05-07T07:45:41;34.80;25.70
80234;DHT22;69712;42.142;24.766;2023-05-07T07:48:07;34.10;25.30
80234;DHT22;69712;42.142;24.766;2023-05-07T07:50:32;34.10;25.70
80234;DHT22;69712;42.142;24.766;2023-05-07T07:52:58;33.50;26.30
80234;DHT22;69712;42.142;24.766;2023-05-07T07:55:24;31.20;27.50
80234;DHT22;69712;42.142;24.766;2023-05-07T07:57:50;31.90;28.00
80234;DHT22;69712;42.142;24.766;2023-05-07T08:00:16;33.30;26.90
80234;DHT22;69712;42.142;24.766;2023-05-07T08:02:42;31.60;28.70
80234;DHT22;69712;42.142;24.766;2023-05-07T08:05:08;32.60;27.60
80234;DHT22;69712;42.142;24.766;2023-05-07T08:07:33;33.30;27.30
80234;DHT22;69712;42.142;24.766;2023-05-07T08:09:59;34.20;26.60
80234;DHT22;69712;42.142;24.766;2023-05-07T08:12:25;34.60;25.70
80234;DHT22;69712;42.142;24.766;2023-05-07T08:14:51;34.30;25.90
80234;DHT22;69712;42.142;24.766;2023-05-07T08:17:16;34.10;25.90
80234;DHT22;69712;42.142;24.766;2023-05-07T08:19:43;33.70;26.00
80234;DHT22;69712;42.142;24.766;2023-05-07T08:22:09;33.70;25.70
80234;DHT22;69712;42.142;24.766;2023-05-07T08:24:36;34.10;25.40
80234;DHT22;69712;42.142;24.766;2023-05-07T08:27:02;33.30;25.60
80234;DHT22;69712;42.142;24.766;2023-05-07T08:29:27;31.30;26.90
80234;DHT22;69712;42.142;24.766;2023-05-07T08:31:53;29.40;29.00
80234;DHT22;69712;42.142;24.766;2023-05-07T08:34:19;28.40;29.80
80234;DHT22;69712;42.142;24.766;2023-05-07T08:36:45;28.90;29.60
80234;DHT22;69712;42.142;24.766;2023-05-07T08:39:15;30.70;28.20
80234;DHT22;69712;42.142;24.766;2023-05-07T08:41:45;30.30;27.30
80234;DHT22;69712;42.142;24.766;2023-05-07T08:44:13;31.90;27.20
80234;DHT22;69712;42.142;24.766;2023-05-07T08:46:45;29.00;29.30
80234;DHT22;69712;42.142;24.766;2023-05-07T08:49:12;29.00;30.30
80234;DHT22;69712;42.142;24.766;2023-05-07T08:51:38;29.80;29.70
80234;DHT22;69712;42.142;24.766;2023-05-07T08:54:04;31.60;28.20
80234;DHT22;69712;42.142;24.766;2023-05-07T08:56:30;33.30;26.10
80234;DHT22;69712;42.142;24.766;2023-05-07T08:58:56;32.50;25.90
80234;DHT22;69712;42.142;24.766;2023-05-07T09:01:24;30.40;27.80
80234;DHT22;69712;42.142;24.766;2023-05-07T09:03:50;28.40;30.00
80234;DHT22;69712;42.142;24.766;2023-05-07T09:06:17;30.40;29.40
80234;DHT22;69712;42.142;24.766;2023-05-07T09:08:49;31.10;26.90
80234;DHT22;69712;42.142;24.766;2023-05-07T09:11:16;32.20;24.80
80234;DHT22;69712;42.142;24.766;2023-05-07T09:13:42;32.60;25.90
80234;DHT22;69712;42.142;24.766;2023-05-07T09:16:12;32.60;24.40
80234;DHT22;69712;42.142;24.766;2023-05-07T09:18:42;32.90;24.10
80234;DHT22;69712;42.142;24.766;2023-05-07T09:21:14;31.70;24.00
80234;DHT22;69712;42.142;24.766;2023-05-07T09:23:40;29.00;25.60
80234;DHT22;69712;42.142;24.766;2023-05-07T09:26:07;28.00;27.00
80234;DHT22;69712;42.142;24.766;2023-05-07T09:28:41;29.40;25.60
80234;DHT22;69712;42.142;24.766;2023-05-07T09:31:08;30.30;24.80
80234;DHT22;69712;42.142;24.766;2023-05-07T09:33:34;29.50;24.70
80234;DHT22;69712;42.142;24.766;2023-05-07T09:36:05;29.00;25.60
80234;DHT22;69712;42.142;24.766;2023-05-07T09:38:35;28.60;26.10
80234;DHT22;69712;42.142;24.766;2023-05-07T09:41:12;28.90;27.20
80234;DHT22;69712;42.142;24.766;2023-05-07T09:43:39;28.00;27.40
80234;DHT22;69712;42.142;24.766;2023-05-07T09:46:12;28.60;27.10
80234;DHT22;69712;42.142;24.766;2023-05-07T09:48:40;29.10;27.70
80234;DHT22;69712;42.142;24.766;2023-05-07T09:51:21;28.40;27.60
80234;DHT22;69712;42.142;24.766;2023-05-07T09:53:48;26.50;29.70
80234;DHT22;69712;42.142;24.766;2023-05-07T09:56:16;26.70;29.90
80234;DHT22;69712;42.142;24.766;2023-05-07T09:58:43;26.70;30.00
80234;DHT22;69712;42.142;24.766;2023-05-07T10:01:11;25.70;31.30
80234;DHT22;69712;42.142;24.766;2023-05-07T10:03:40;24.70;33.80
80234;DHT22;69712;42.142;24.766;2023-05-07T10:06:10;24.80;32.50
80234;DHT22;69712;42.142;24.766;2023-05-07T10:08:37;23.90;34.70
80234;DHT22;69712;42.142;24.766;2023-05-07T10:11:04;23.60;35.60
80234;DHT22;69712;42.142;24.766;2023-05-07T10:13:33;23.80;34.70
80234;DHT22;69712;42.142;24.766;2023-05-07T10:16:02;23.80;34.30
80234;DHT22;69712;42.142;24.766;2023-05-07T10:18:33;24.20;33.90
80234;DHT22;69712;42.142;24.766;2023-05-07T10:21:07;24.50;33.90
80234;DHT22;69712;42.142;24.766;2023-05-07T10:23:33;25.10;32.30
80234;DHT22;69712;42.142;24.766;2023-05-07T10:26:02;25.30;32.90
80234;DHT22;69712;42.142;24.766;2023-05-07T10:28:31;25.10;31.90
80234;DHT22;69712;42.142;24.766;2023-05-07T10:31:24;25.00;33.20
80234;DHT22;69712;42.142;24.766;2023-05-07T10:33:55;25.10;32.30
80234;DHT22;69712;42.142;24.766;2023-05-07T10:36:22;25.10;31.80
80234;DHT22;69712;42.142;24.766;2023-05-07T10:38:48;24.70;31.80
80234;DHT22;69712;42.142;24.766;2023-05-07T10:41:14;24.80;33.50
80234;DHT22;69712;42.142;24.766;2023-05-07T10:43:44;25.00;31.60
80234;DHT22;69712;42.142;24.766;2023-05-07T10:49:06;24.40;32.30
80234;DHT22;69712;42.142;24.766;2023-05-07T10:51:33;24.50;31.70
80234;DHT22;69712;42.142;24.766;2023-05-07T10:56:40;25.10;31.90
80234;DHT22;69712;42.142;24.766;2023-05-07T11:01:50;26.00;30.20
80234;DHT22;69712;42.142;24.766;2023-05-07T11:04:16;25.80;30.40
80234;DHT22;69712;42.142;24.766;2023-05-07T11:10:01;25.50;30.40
80234;DHT22;69712;42.142;24.766;2023-05-07T11:15:05;26.40;29.30
80234;DHT22;69712;42.142;24.766;2023-05-07T11:17:31;26.60;28.80
80234;DHT22;69712;42.142;24.766;2023-05-07T11:20:03;27.00;29.30
80234;DHT22;69712;42.142;24.766;2023-05-07T11:25:05;27.40;28.20
80234;DHT22;69712;42.142;24.766;2023-05-07T11:27:32;28.00;27.90
80234;DHT22;69712;42.142;24.766;2023-05-07T11:29:58;27.80;28.00
80234;DHT22;69712;42.142;24.766;2023-05-07T11:32:30;28.80;27.10
80234;DHT22;69712;42.142;24.766;2023-05-07T11:34:58;28.70;27.40
80234;DHT22;69712;42.142;24.766;2023-05-07T11:37:25;28.10;27.20
80234;DHT22;69712;42.142;24.766;2023-05-07T11:40:02;27.50;27.20
80234;DHT22;69712;42.142;24.766;2023-05-07T11:42:37;29.20;27.00
80234;DHT22;69712;42.142;24.766;2023-05-07T11:45:03;28.80;27.70
80234;DHT22;69712;42.142;24.766;2023-05-07T11:47:33;29.20;26.10
80234;DHT22;69712;42.142;24.766;2023-05-07T11:50:06;30.60;25.20
80234;DHT22;69712;42.142;24.766;2023-05-07T11:52:33;30.70;24.90
80234;DHT22;69712;42.142;24.766;2023-05-07T11:55:00;30.00;25.50
80234;DHT22;69712;42.142;24.766;2023-05-07T11:57:27;30.10;26.10
80234;DHT22;69712;42.142;24.766;2023-05-07T11:59:56;28.60;26.20
80234;DHT22;69712;42.142;24.766;2023-05-07T12:02:23;27.10;28.70
80234;DHT22;69712;42.142;24.766;2023-05-07T12:04:53;28.20;27.70
80234;DHT22;69712;42.142;24.766;2023-05-07T12:07:19;28.80;26.80
80234;DHT22;69712;42.142;24.766;2023-05-07T12:09:45;28.60;27.10
80234;DHT22;69712;42.142;24.766;2023-05-07T12:12:13;27.70;27.20
80234;DHT22;69712;42.142;24.766;2023-05-07T12:14:44;27.20;28.60
80234;DHT22;69712;42.142;24.766;2023-05-07T12:17:12;26.40;29.30
80234;DHT22;69712;42.142;24.766;2023-05-07T12:19:41;26.40;30.00
80234;DHT22;69712;42.142;24.766;2023-05-07T12:22:08;26.00;29.70
80234;DHT22;69712;42.142;24.766;2023-05-07T12:24:57;25.40;30.60
80234;DHT22;69712;42.142;24.766;2023-05-07T12:27:23;24.90;31.50
80234;DHT22;69712;42.142;24.766;2023-05-07T12:29:50;25.10;31.00
80234;DHT22;69712;42.142;24.766;2023-05-07T12:32:17;25.40;31.20
80234;DHT22;69712;42.142;24.766;2023-05-07T12:34:44;25.10;29.80
80234;DHT22;69712;42.142;24.766;2023-05-07T12:37:10;25.00;30.20
80234;DHT22;69712;42.142;24.766;2023-05-07T12:39:36;25.00;31.00
80234;DHT22;69712;42.142;24.766;2023-05-07T12:42:02;24.70;32.10
80234;DHT22;69712;42.142;24.766;2023-05-07T12:44:34;24.70;31.40
80234;DHT22;69712;42.142;24.766;2023-05-07T12:47:03;24.70;32.10
80234;DHT22;69712;42.142;24.766;2023-05-07T12:49:29;24.80;31.80
80234;DHT22;69712;42.142;24.766;2023-05-07T12:51:55;24.60;31.90
80234;DHT22;69712;42.142;24.766;2023-05-07T12:54:28;25.00;31.60
80234;DHT22;69712;42.142;24.766;2023-05-07T12:57:06;26.30;30.10
80234;DHT22;69712;42.142;24.766;2023-05-07T12:59:37;27.00;28.90
80234;DHT22;69712;42.142;24.766;2023-05-07T13:02:03;27.90;28.30
80234;DHT22;69712;42.142;24.766;2023-05-07T13:04:29;27.50;27.90
80234;DHT22;69712;42.142;24.766;2023-05-07T13:06:55;27.40;27.90
80234;DHT22;69712;42.142;24.766;2023-05-07T13:09:21;27.80;27.70
80234;DHT22;69712;42.142;24.766;2023-05-07T13:11:46;28.40;27.20
80234;DHT22;69712;42.142;24.766;2023-05-07T13:14:12;27.80;27.40
80234;DHT22;69712;42.142;24.766;2023-05-07T13:16:38;28.30;27.00
80234;DHT22;69712;42.142;24.766;2023-05-07T13:19:03;28.20;27.40
80234;DHT22;69712;42.142;24.766;2023-05-07T13:21:30;27.20;27.90
80234;DHT22;69712;42.142;24.766;2023-05-07T13:23:58;26.40;29.30
80234;DHT22;69712;42.142;24.766;2023-05-07T13:26:25;26.20;29.50
80234;DHT22;69712;42.142;24.766;2023-05-07T13:28:54;26.30;29.50
80234;DHT22;69712;42.142;24.766;2023-05-07T13:31:20;26.00;29.50
80234;DHT22;69712;42.142;24.766;2023-05-07T13:33:46;25.30;29.20
80234;DHT22;69712;42.142;24.766;2023-05-07T13:36:12;25.10;30.00
80234;DHT22;69712;42.142;24.766;2023-05-07T13:38:39;25.20;29.50
80234;DHT22;69712;42.142;24.766;2023-05-07T13:41:05;25.40;29.20
80234;DHT22;69712;42.142;24.766;2023-05-07T13:43:31;26.20;28.40
80234;DHT22;69712;42.142;24.766;2023-05-07T13:45:59;26.60;27.90
80234;DHT22;69712;42.142;24.766;2023-05-07T13:48:25;26.90;27.80
80234;DHT22;69712;42.142;24.766;2023-05-07T13:50:51;26.70;27.90
80234;DHT22;69712;42.142;24.766;2023-05-07T13:53:17;26.30;28.30
80234;DHT22;69712;42.142;24.766;2023-05-07T13:55:44;25.60;28.70
80234;DHT22;69712;42.142;24.766;2023-05-07T13:58:10;25.20;29.60
80234;DHT22;69712;42.142;24.766;2023-05-07T14:00:36;25.10;29.40
80234;DHT22;69712;42.142;24.766;2023-05-07T14:03:04;25.20;29.20
80234;DHT22;69712;42.142;24.766;2023-05-07T14:05:29;25.60;29.70
80234;DHT22;69712;42.142;24.766;2023-05-07T14:07:57;25.40;29.10
80234;DHT22;69712;42.142;24.766;2023-05-07T14:10:25;25.30;28.90
80234;DHT22;69712;42.142;24.766;2023-05-07T14:12:50;25.40;28.70
80234;DHT22;69712;42.142;24.766;2023-05-07T14:15:17;25.30;28.90
80234;DHT22;69712;42.142;24.766;2023-05-07T14:17:43;25.10;29.40
80234;DHT22;69712;42.142;24.766;2023-05-07T14:20:10;25.00;29.10
80234;DHT22;69712;42.142;24.766;2023-05-07T14:22:36;25.20;29.20
80234;DHT22;69712;42.142;24.766;2023-05-07T14:25:02;24.90;29.10
80234;DHT22;69712;42.142;24.766;2023-05-07T14:27:27;25.00;29.40
80234;DHT22;69712;42.142;24.766;2023-05-07T14:29:53;24.70;29.60
80234;DHT22;69712;42.142;24.766;2023-05-07T14:32:19;24.90;29.90
80234;DHT22;69712;42.142;24.766;2023-05-07T14:34:45;24.80;29.90
80234;DHT22;69712;42.142;24.766;2023-05-07T14:37:12;24.20;30.40
80234;DHT22;69712;42.142;24.766;2023-05-07T14:39:38;24.00;31.20
80234;DHT22;69712;42.142;24.766;2023-05-07T14:42:03;23.80;31.30
80234;DHT22;69712;42.142;24.766;2023-05-07T14:44:29;23.90;31.50
80234;DHT22;69712;42.142;24.766;2023-05-07T14:46:56;23.90;30.90
80234;DHT22;69712;42.142;24.766;2023-05-07T14:49:23;23.70;31.20
80234;DHT22;69712;42.142;24.766;2023-05-07T14:51:49;23.60;31.70
80234;DHT22;69712;42.142;24.766;2023-05-07T14:54:15;23.40;32.50
80234;DHT22;69712;42.142;24.766;2023-05-07T14:56:41;23.40;32.50
80234;DHT22;69712;42.142;24.766;2023-05-07T14:59:08;23.60;32.10
80234;DHT22;69712;42.142;24.766;2023-05-07T15:01:35;23.60;31.70
80234;DHT22;69712;42.142;24.766;2023-05-07T15:04:05;23.80;31.50
80234;DHT22;69712;42.142;24.766;2023-05-07T15:06:31;23.90;31.40
80234;DHT22;69712;42.142;24.766;2023-05-07T15:08:57;24.00;31.30
80234;DHT22;69712;42.142;24.766;2023-05-07T15:11:23;23.80;31.00
80234;DHT22;69712;42.142;24.766;2023-05-07T15:13:49;23.50;31.90
80234;DHT22;69712;42.142;24.766;2023-05-07T15:16:15;23.40;31.90
80234;DHT22;69712;42.142;24.766;2023-05-07T15:18:41;23.50;32.00
80234;DHT22;69712;42.142;24.766;2023-05-07T15:21:07;23.60;32.00
80234;DHT22;69712;42.142;24.766;2023-05-07T15:23:32;23.80;31.50
80234;DHT22;69712;42.142;24.766;2023-05-07T15:25:58;23.90;30.60
80234;DHT22;69712;42.142;24.766;2023-05-07T15:28:24;23.80;30.70
80234;DHT22;69712;42.142;24.766;2023-05-07T15:30:50;23.80;31.10
80234;DHT22;69712;42.142;24.766;2023-05-07T15:33:16;23.80;31.40
80234;DHT22;69712;42.142;24.766;2023-05-07T15:35:42;23.60;31.70
80234;DHT22;69712;42.142;24.766;2023-05-07T15:38:07;23.50;31.40
80234;DHT22;69712;42.142;24.766;2023-05-07T15:40:34;23.50;31.80
80234;DHT22;69712;42.142;24.766;2023-05-07T15:43:03;23.40;31.50
80234;DHT22;69712;42.142;24.766;2023-05-07T15:45:29;23.50;31.80
80234;DHT22;69712;42.142;24.766;2023-05-07T15:47:54;23.60;31.20
80234;DHT22;69712;42.142;24.766;2023-05-07T15:50:20;23.30;31.40
80234;DHT22;69712;42.142;24.766;2023-05-07T15:52:46;23.00;31.80
80234;DHT22;69712;42.142;24.766;2023-05-07T15:55:12;23.00;32.20
80234;DHT22;69712;42.142;24.766;2023-05-07T15:57:37;22.90;31.90
80234;DHT22;69712;42.142;24.766;2023-05-07T16:00:04;22.80;32.70
80234;DHT22;69712;42.142;24.766;2023-05-07T16:02:31;22.90;32.80
80234;DHT22;69712;42.142;24.766;2023-05-07T16:04:56;22.90;32.30
80234;DHT22;69712;42.142;24.766;2023-05-07T16:07:22;23.10;32.20
80234;DHT22;69712;42.142;24.766;2023-05-07T16:09:48;23.10;32.00
80234;DHT22;69712;42.142;24.766;2023-05-07T16:12:14;23.00;32.40
80234;DHT22;69712;42.142;24.766;2023-05-07T16:14:40;22.80;33.10
80234;DHT22;69712;42.142;24.766;2023-05-07T16:17:13;22.90;32.60
80234;DHT22;69712;42.142;24.766;2023-05-07T16:19:39;22.90;33.00
80234;DHT22;69712;42.142;24.766;2023-05-07T16:22:05;23.00;32.80
80234;DHT22;69712;42.142;24.766;2023-05-07T16:24:30;23.00;32.50
80234;DHT22;69712;42.142;24.766;2023-05-07T16:26:57;22.90;32.50
80234;DHT22;69712;42.142;24.766;2023-05-07T16:29:44;22.60;33.00
80234;DHT22;69712;42.142;24.766;2023-05-07T16:32:10;22.50;33.50
80234;DHT22;69712;42.142;24.766;2023-05-07T16:34:35;22.50;34.00
80234;DHT22;69712;42.142;24.766;2023-05-07T16:37:02;22.50;33.60
80234;DHT22;69712;42.142;24.766;2023-05-07T16:39:29;22.40;33.70
80234;DHT22;69712;42.142;24.766;2023-05-07T16:41:54;22.40;35.10
80234;DHT22;69712;42.142;24.766;2023-05-07T16:44:20;22.50;33.90
80234;DHT22;69712;42.142;24.766;2023-05-07T16:46:46;22.40;33.50
80234;DHT22;69712;42.142;24.766;2023-05-07T16:49:11;22.40;33.70
80234;DHT22;69712;42.142;24.766;2023-05-07T16:51:37;22.30;34.00
80234;DHT22;69712;42.142;24.766;2023-05-07T16:54:03;22.10;34.00
80234;DHT22;69712;42.142;24.766;2023-05-07T16:56:29;22.10;33.90
80234;DHT22;69712;42.142;24.766;2023-05-07T16:58:55;22.20;33.90
80234;DHT22;69712;42.142;24.766;2023-05-07T17:01:20;22.20;33.90
80234;DHT22;69712;42.142;24.766;2023-05-07T17:03:46;22.10;33.90
80234;DHT22;69712;42.142;24.766;2023-05-07T17:06:12;22.20;33.70
80234;DHT22;69712;42.142;24.766;2023-05-07T17:08:40;22.10;34.10
80234;DHT22;69712;42.142;24.766;2023-05-07T17:11:09;22.00;33.90
80234;DHT22;69712;42.142;24.766;2023-05-07T17:13:35;22.00;34.40
80234;DHT22;69712;42.142;24.766;2023-05-07T17:16:01;21.80;35.70
80234;DHT22;69712;42.142;24.766;2023-05-07T17:18:26;21.80;34.70
80234;DHT22;69712;42.142;24.766;2023-05-07T17:20:52;21.80;34.70
80234;DHT22;69712;42.142;24.766;2023-05-07T17:23:18;21.80;34.80
80234;DHT22;69712;42.142;24.766;2023-05-07T17:25:43;21.80;35.10
80234;DHT22;69712;42.142;24.766;2023-05-07T17:28:13;21.70;35.10
80234;DHT22;69712;42.142;24.766;2023-05-07T17:30:38;21.70;35.20
80234;DHT22;69712;42.142;24.766;2023-05-07T17:33:05;21.70;35.40
80234;DHT22;69712;42.142;24.766;2023-05-07T17:35:31;21.50;35.40
80234;DHT22;69712;42.142;24.766;2023-05-07T17:38:01;21.40;35.90
80234;DHT22;69712;42.142;24.766;2023-05-07T17:40:27;21.30;36.50
80234;DHT22;69712;42.142;24.766;2023-05-07T17:42:54;21.30;36.30
80234;DHT22;69712;42.142;24.766;2023-05-07T17:45:20;21.20;36.60
80234;DHT22;69712;42.142;24.766;2023-05-07T17:47:46;21.10;36.70
80234;DHT22;69712;42.142;24.766;2023-05-07T17:50:12;21.30;36.50
80234;DHT22;69712;42.142;24.766;2023-05-07T17:52:39;21.20;36.60
80234;DHT22;69712;42.142;24.766;2023-05-07T17:55:06;21.30;37.60
80234;DHT22;69712;42.142;24.766;2023-05-07T17:57:32;21.20;36.70
80234;DHT22;69712;42.142;24.766;2023-05-07T18:00:04;21.30;36.70
80234;DHT22;69712;42.142;24.766;2023-05-07T18:02:34;21.40;36.80
80234;DHT22;69712;42.142;24.766;2023-05-07T18:05:00;21.20;36.90
80234;DHT22;69712;42.142;24.766;2023-05-07T18:07:25;21.20;37.00
80234;DHT22;69712;42.142;24.766;2023-05-07T18:09:51;21.10;37.30
80234;DHT22;69712;42.142;24.766;2023-05-07T18:12:17;21.10;37.20
80234;DHT22;69712;42.142;24.766;2023-05-07T18:14:43;21.10;37.70
80234;DHT22;69712;42.142;24.766;2023-05-07T18:17:09;20.70;37.90
80234;DHT22;69712;42.142;24.766;2023-05-07T18:19:35;20.70;38.10
80234;DHT22;69712;42.142;24.766;2023-05-07T18:22:01;20.80;38.20
80234;DHT22;69712;42.142;24.766;2023-05-07T18:24:27;20.60;37.90
80234;DHT22;69712;42.142;24.766;2023-05-07T18:26:53;20.60;38.20
80234;DHT22;69712;42.142;24.766;2023-05-07T18:29:19;20.60;38.30
80234;DHT22;69712;42.142;24.766;2023-05-07T18:31:44;20.60;38.60
80234;DHT22;69712;42.142;24.766;2023-05-07T18:34:10;20.40;38.70